Time;durP1;ratioP1;P1;durP2;ratioP2;P2;SDS_P1;SDS_P2;PMS_P1;PMS_P2;Temp;Humidity;BMP_temperature;BMP_pressure;BME280_temperature;BME280_humidity;BME280_pressure;Samples;Min_cycle;Max_cycle;Signal;HPM_P1;HPM_P2
2023/10/19 00:01:09;;;;;;;2.70;2.50;;;;;;;12.92;91.83;93996.81;4935234;29;20190;-79
2023/10/19 00:03:35;;;;;;;3.13;2.73;;;;;;;12.98;91.34;94000.41;4932991;29;20233;-79
2023/10/19 00:06:00;;;;;;;3.33;2.93;;;;;;;13.07;90.74;93999.22;4936646;29;20350;-80
2023/10/19 00:08:36;;;;;;;2.67;2.47;;;;;;;12.98;91.18;94001.22;4940154;29;20225;-79
2023/10/19 00:13:35;;;;;;;3.73;3.03;;;;;;;13.07;91.16;94001.81;4947213;29;20193;-79
2023/10/19 00:16:07;;;;;;;4.00;2.50;;;;;;;13.20;91.15;93998.47;4929203;29;20199;-79
2023/10/19 00:18:34;;;;;;;2.63;2.30;;;;;;;13.13;92.13;93995.03;4936387;29;20778;-79
2023/10/19 00:21:07;;;;;;;3.67;2.77;;;;;;;13.16;93.16;93987.59;4934310;29;20189;-79
2023/10/19 00:23:36;;;;;;;4.97;2.73;;;;;;;13.15;93.60;93986.00;4938078;29;20188;-79
2023/10/19 00:26:10;;;;;;;3.60;2.87;;;;;;;13.07;95.08;93985.38;4929746;29;20303;-80
2023/10/19 00:28:38;;;;;;;3.50;2.73;;;;;;;13.13;95.67;93977.59;4935441;29;20208;-80
2023/10/19 00:31:07;;;;;;;4.53;3.10;;;;;;;13.24;95.14;93979.59;4924903;28;20208;-80
2023/10/19 00:33:33;;;;;;;3.20;2.90;;;;;;;13.14;96.34;93973.97;4944380;29;20194;-79
2023/10/19 00:36:06;;;;;;;4.50;3.00;;;;;;;13.30;96.50;93973.59;4946603;29;20273;-80
2023/10/19 00:41:11;;;;;;;3.30;3.00;;;;;;;13.21;97.28;93974.00;4940569;29;20556;-80
2023/10/19 00:43:44;;;;;;;4.80;3.00;;;;;;;13.22;96.20;93971.19;4943460;28;20185;-80
2023/10/19 00:48:58;;;;;;;2.90;2.67;;;;;;;13.12;98.11;93964.75;4946005;29;20239;-79
2023/10/19 00:52:02;;;;;;;5.20;3.03;;;;;;;13.15;96.95;93970.34;4943929;29;20202;-79
2023/10/19 00:54:40;;;;;;;5.23;3.60;;;;;;;13.01;98.54;93972.19;4927142;29;20193;-81
2023/10/19 00:57:10;;;;;;;5.93;3.50;;;;;;;12.98;97.90;93964.75;4941481;28;20220;-80
2023/10/19 00:59:43;;;;;;;3.37;3.00;;;;;;;13.05;98.12;93965.56;4938616;29;20219;-80
2023/10/19 01:04:46;;;;;;;3.57;3.27;;;;;;;13.06;97.76;93966.34;4941507;29;20697;-78
2023/10/19 01:07:15;;;;;;;5.40;3.57;;;;;;;13.15;97.46;93954.72;4923569;29;20220;-79
2023/10/19 01:09:43;;;;;;;5.53;3.10;;;;;;;13.20;97.24;93959.38;4952710;29;20188;-79
2023/10/19 01:15:05;;;;;;;4.03;3.53;;;;;;;13.24;96.72;93952.72;4943678;29;20263;-80
2023/10/19 01:17:31;;;;;;;5.20;3.30;;;;;;;13.13;97.40;93935.88;4940177;29;20202;-79
2023/10/19 01:19:58;;;;;;;6.20;3.53;;;;;;;13.20;97.27;93941.13;4946361;29;20759;-79
2023/10/19 01:22:26;;;;;;;5.57;3.30;;;;;;;13.07;98.30;93935.88;4959582;29;20199;-79
2023/10/19 01:24:53;;;;;;;5.20;3.47;;;;;;;13.05;98.38;93934.28;4958688;29;20185;-78
2023/10/19 01:27:18;;;;;;;4.17;3.33;;;;;;;13.06;98.42;93929.88;4963293;29;20213;-79
2023/10/19 01:29:44;;;;;;;5.37;3.53;;;;;;;13.05;99.24;93920.44;4960087;29;20212;-80
2023/10/19 01:32:11;;;;;;;4.97;3.40;;;;;;;13.08;99.73;93917.47;4958366;29;20252;-79
2023/10/19 01:34:37;;;;;;;6.07;3.67;;;;;;;13.13;99.86;93915.03;4960288;28;20257;-79
2023/10/19 01:37:03;;;;;;;4.07;3.13;;;;;;;13.22;99.82;93907.84;4961746;28;20189;-79
2023/10/19 01:39:38;;;;;;;4.87;3.37;;;;;;;13.27;99.28;93914.06;4939220;29;20653;-79
2023/10/19 01:42:04;;;;;;;4.13;3.33;;;;;;;13.23;100.00;93910.22;4938054;29;20203;-80
2023/10/19 01:44:30;;;;;;;5.03;3.60;;;;;;;13.24;100.00;93914.44;4946790;29;20185;-80
2023/10/19 01:46:56;;;;;;;5.67;3.23;;;;;;;13.25;100.00;93913.47;4931393;29;20690;-81
2023/10/19 01:49:30;;;;;;;4.30;3.33;;;;;;;13.28;100.00;93926.06;4950268;29;20203;-81
2023/10/19 01:51:56;;;;;;;5.77;3.73;;;;;;;13.38;100.00;93922.25;4930820;29;20190;-81
2023/10/19 01:54:24;;;;;;;6.63;3.73;;;;;;;13.31;100.00;93917.84;4950191;29;20193;-81
2023/10/19 01:56:54;;;;;;;5.23;3.50;;;;;;;13.38;100.00;93914.44;4943560;29;20209;-80
2023/10/19 01:59:22;;;;;;;4.83;4.30;;;;;;;13.44;100.00;93911.81;4930140;29;20196;-79
2023/10/19 02:01:49;;;;;;;5.50;3.67;;;;;;;13.50;100.00;93900.53;4950716;28;20177;-81
2023/10/19 02:04:14;;;;;;;4.03;3.63;;;;;;;13.51;100.00;93904.75;4933990;29;20210;-80
2023/10/19 02:06:40;;;;;;;7.53;3.20;;;;;;;13.53;99.38;93901.97;4945053;29;20320;-80
2023/10/19 02:11:42;;;;;;;7.13;3.73;;;;;;;13.48;100.00;93886.13;4951708;29;20223;-78
2023/10/19 02:14:14;;;;;;;6.23;3.60;;;;;;;13.57;100.00;93890.09;4937663;29;20257;-80
2023/10/19 02:16:52;;;;;;;7.20;3.33;;;;;;;13.54;100.00;93891.31;4949101;29;20211;-79
2023/10/19 02:19:19;;;;;;;5.90;2.90;;;;;;;13.62;100.00;93892.91;4950304;29;20209;-78
2023/10/19 02:21:47;;;;;;;8.33;3.77;;;;;;;13.58;100.00;93881.25;4957132;28;20256;-80
2023/10/19 02:24:16;;;;;;;7.90;3.90;;;;;;;13.71;100.00;93870.78;4953087;29;20185;-79
2023/10/19 02:26:42;;;;;;;5.20;3.73;;;;;;;13.84;100.00;93878.53;4943929;29;20214;-80
2023/10/19 02:29:09;;;;;;;6.67;3.37;;;;;;;13.86;100.00;93879.13;4926062;29;20210;-80
2023/10/19 02:31:37;;;;;;;4.53;3.30;;;;;;;13.96;100.00;93877.88;4940386;29;20253;-79
2023/10/19 02:34:04;;;;;;;6.30;3.50;;;;;;;13.96;100.00;93885.72;4945003;29;20730;-79
2023/10/19 02:36:30;;;;;;;3.50;3.20;;;;;;;13.96;100.00;93875.28;4953990;29;20265;-80
2023/10/19 02:38:58;;;;;;;3.33;2.83;;;;;;;13.96;100.00;93867.44;4937764;29;20645;-80
2023/10/19 02:41:26;;;;;;;3.87;3.27;;;;;;;13.98;100.00;93875.88;4951472;29;20190;-79
2023/10/19 02:44:01;;;;;;;3.57;3.27;;;;;;;13.89;100.00;93870.91;4943455;29;20197;-80
2023/10/19 02:46:31;;;;;;;3.73;2.77;;;;;;;14.00;100.00;93871.25;4934035;29;20280;-79
2023/10/19 02:49:00;;;;;;;4.43;2.70;;;;;;;13.99;100.00;93860.00;4950155;29;20290;-80
2023/10/19 02:51:26;;;;;;;4.00;2.73;;;;;;;14.00;100.00;93860.81;4950045;28;20195;-80
2023/10/19 02:53:51;;;;;;;4.13;2.80;;;;;;;13.91;100.00;93855.03;4954453;29;20971;-79
2023/10/19 02:56:17;;;;;;;3.77;2.90;;;;;;;13.87;100.00;93846.03;4949843;29;20201;-78
2023/10/19 02:58:46;;;;;;;3.37;3.07;;;;;;;13.75;100.00;93853.69;4952265;28;20205;-78
2023/10/19 03:01:13;;;;;;;4.23;3.00;;;;;;;13.65;100.00;93849.94;4938947;29;20196;-79
2023/10/19 03:03:39;;;;;;;5.30;3.20;;;;;;;13.57;100.00;93843.94;4943564;29;20186;-79
2023/10/19 03:06:06;;;;;;;4.33;3.30;;;;;;;13.47;100.00;93848.81;4938818;29;20708;-79
2023/10/19 03:08:31;;;;;;;4.17;3.13;;;;;;;13.38;100.00;93844.81;4944647;29;20224;-79
2023/10/19 03:11:07;;;;;;;4.43;3.27;;;;;;;13.29;100.00;93851.28;4941694;29;20193;-78
2023/10/19 03:13:32;;;;;;;3.33;3.03;;;;;;;13.24;100.00;93844.06;4934509;29;20272;-78
2023/10/19 03:16:00;;;;;;;6.70;3.43;;;;;;;13.22;100.00;93845.28;4948285;28;20269;-80
2023/10/19 03:18:26;;;;;;;4.40;3.43;;;;;;;13.13;100.00;93846.47;4941609;29;20212;-79
2023/10/19 03:20:51;;;;;;;4.23;3.20;;;;;;;13.15;100.00;93834.84;4943743;29;20582;-79
2023/10/19 03:23:17;;;;;;;5.63;3.67;;;;;;;13.08;100.00;93833.28;4932461;29;20209;-81
2023/10/19 03:28:26;;;;;;;5.30;3.97;;;;;;;12.97;100.00;93837.28;4952728;29;20256;-79
2023/10/19 03:30:51;;;;;;;5.23;4.03;;;;;;;12.93;100.00;93828.28;4945678;28;20659;-80
2023/10/19 03:33:18;;;;;;;6.27;3.83;;;;;;;12.89;100.00;93827.88;4928886;29;20194;-79
2023/10/19 03:35:43;;;;;;;5.93;4.17;;;;;;;12.90;100.00;93831.31;4963921;28;20659;-79
2023/10/19 03:38:14;;;;;;;5.03;4.30;;;;;;;12.90;100.00;93833.91;4934114;29;20205;-78
2023/10/19 03:40:40;;;;;;;4.43;4.03;;;;;;;12.87;100.00;93816.84;4945571;28;20181;-79
2023/10/19 03:43:16;;;;;;;5.73;4.00;;;;;;;12.85;100.00;93812.88;4938912;29;20190;-80
2023/10/19 03:45:47;;;;;;;5.33;3.37;;;;;;;12.91;100.00;93812.06;4943339;29;20196;-78
2023/10/19 03:48:12;;;;;;;5.80;3.50;;;;;;;12.93;100.00;93808.25;4949053;28;20217;-79
2023/10/19 03:50:38;;;;;;;5.77;3.97;;;;;;;13.08;100.00;93807.22;4932698;29;20198;-78
2023/10/19 03:53:04;;;;;;;4.20;3.50;;;;;;;13.12;100.00;93798.75;4948408;29;20213;-79
2023/10/19 03:55:30;;;;;;;4.10;3.40;;;;;;;13.10;100.00;93792.97;4930081;29;20190;-79
2023/10/19 03:57:55;;;;;;;5.37;3.70;;;;;;;13.10;100.00;93795.56;4928012;29;20207;-78
2023/10/19 04:00:24;;;;;;;5.47;4.43;;;;;;;13.08;100.00;93797.59;4938791;29;20193;-78
2023/10/19 04:02:55;;;;;;;4.10;3.70;;;;;;;13.04;100.00;93793.78;4950964;29;20181;-79
2023/10/19 04:05:22;;;;;;;4.50;3.93;;;;;;;13.02;100.00;93796.59;4947755;29;20189;-80
2023/10/19 04:07:50;;;;;;;4.37;3.33;;;;;;;12.97;100.00;93793.00;4945911;29;20210;-79
2023/10/19 04:10:38;;;;;;;5.80;3.97;;;;;;;12.94;100.00;93793.41;4922175;29;20237;-80
2023/10/19 04:13:04;;;;;;;5.23;3.87;;;;;;;12.86;100.00;93788.41;4950366;29;20694;-78
2023/10/19 04:15:33;;;;;;;6.20;4.50;;;;;;;12.74;100.00;93789.03;4948065;29;20186;-79
2023/10/19 04:18:00;;;;;;;6.10;4.00;;;;;;;12.77;100.00;93786.03;4941579;29;20202;-80
2023/10/19 04:22:51;;;;;;;6.87;3.90;;;;;;;12.82;100.00;93790.63;4947087;29;20269;-79
2023/10/19 04:25:20;;;;;;;4.90;3.77;;;;;;;12.74;100.00;93778.63;4932102;29;20726;-79
2023/10/19 04:27:46;;;;;;;4.17;3.70;;;;;;;12.73;100.00;93781.44;4948753;28;20209;-80
2023/10/19 04:30:16;;;;;;;4.47;4.00;;;;;;;12.70;100.00;93780.03;4930821;29;20213;-79
2023/10/19 04:32:51;;;;;;;6.17;3.53;;;;;;;12.71;100.00;93786.81;4941979;29;20212;-80
2023/10/19 04:35:22;;;;;;;6.50;3.90;;;;;;;12.64;100.00;93780.06;4951537;29;20189;-80
2023/10/19 04:37:52;;;;;;;3.90;3.23;;;;;;;12.63;100.00;93781.03;4954210;28;20201;-80
2023/10/19 04:40:18;;;;;;;4.27;3.67;;;;;;;12.57;100.00;93779.25;4936020;29;20682;-83
2023/10/19 04:42:44;;;;;;;4.53;4.13;;;;;;;12.47;100.00;93782.28;4933292;29;20201;-80
2023/10/19 04:45:11;;;;;;;6.47;4.03;;;;;;;12.43;100.00;93779.25;4948827;29;20563;-80
2023/10/19 04:47:37;;;;;;;5.77;3.93;;;;;;;12.46;100.00;93784.09;4947894;28;20221;-79
2023/10/19 04:50:03;;;;;;;4.97;4.23;;;;;;;12.46;100.00;93780.69;4950173;29;20264;-80
2023/10/19 04:52:29;;;;;;;5.17;3.60;;;;;;;12.46;100.00;93781.47;4939487;29;20186;-80
2023/10/19 04:54:54;;;;;;;6.10;4.07;;;;;;;12.39;100.00;93777.28;4947174;29;20244;-80
2023/10/19 04:57:20;;;;;;;5.07;4.40;;;;;;;12.36;100.00;93775.06;4926669;29;20206;-81
2023/10/19 04:59:46;;;;;;;6.93;4.33;;;;;;;12.36;100.00;93772.44;4945027;28;20225;-83
2023/10/19 05:02:11;;;;;;;7.60;4.03;;;;;;;12.30;100.00;93771.47;4947656;28;20185;-83
2023/10/19 05:04:37;;;;;;;5.20;4.70;;;;;;;12.33;100.00;93778.06;4954877;29;20189;-83
2023/10/19 05:07:03;;;;;;;6.17;4.43;;;;;;;12.31;100.00;93783.47;4922095;29;20337;-83
2023/10/19 05:09:29;;;;;;;8.83;5.50;;;;;;;12.28;100.00;93781.28;4944306;29;20194;-84
2023/10/19 05:11:55;;;;;;;5.57;4.97;;;;;;;12.33;100.00;93772.88;4930927;29;20880;-85
2023/10/19 05:14:20;;;;;;;5.60;4.87;;;;;;;12.37;100.00;93774.88;4930054;29;20216;-83
2023/10/19 05:16:45;;;;;;;5.30;4.53;;;;;;;12.40;100.00;93773.66;4928401;28;20237;-83
2023/10/19 05:19:11;;;;;;;6.63;4.47;;;;;;;12.37;100.00;93777.47;4923215;29;20549;-80
2023/10/19 05:21:36;;;;;;;5.43;4.47;;;;;;;12.38;100.00;93775.69;4929013;29;20217;-83
2023/10/19 05:24:01;;;;;;;5.97;3.83;;;;;;;12.42;100.00;93782.88;4930056;29;20202;-83
2023/10/19 05:26:27;;;;;;;5.30;4.27;;;;;;;12.51;100.00;93780.06;4944181;29;20229;-83
2023/10/19 05:28:54;;;;;;;5.53;4.83;;;;;;;12.54;100.00;93777.84;4937169;29;20213;-83
2023/10/19 05:31:19;;;;;;;5.10;4.13;;;;;;;12.63;100.00;93771.44;4928022;29;20193;-84
2023/10/19 05:33:45;;;;;;;7.63;4.00;;;;;;;12.67;100.00;93775.22;4941687;29;20194;-84
2023/10/19 05:36:10;;;;;;;4.47;3.87;;;;;;;12.67;100.00;93772.63;4931814;29;20218;-83
2023/10/19 05:38:35;;;;;;;4.63;4.03;;;;;;;12.71;100.00;93763.38;4930991;29;20690;-82
2023/10/19 05:41:01;;;;;;;6.03;3.90;;;;;;;12.76;100.00;93765.41;4934459;29;20192;-84
2023/10/19 05:43:26;;;;;;;4.53;3.70;;;;;;;12.73;100.00;93766.63;4933608;29;20197;-85
2023/10/19 05:45:51;;;;;;;7.17;4.33;;;;;;;12.80;100.00;93765.78;4936143;29;20192;-84
2023/10/19 05:48:17;;;;;;;8.80;4.17;;;;;;;12.81;100.00;93764.78;4950690;28;20560;-84
2023/10/19 05:50:42;;;;;;;5.63;4.07;;;;;;;12.83;100.00;93760.19;4951000;29;20251;-81
2023/10/19 05:53:18;;;;;;;5.30;3.70;;;;;;;12.86;100.00;93765.75;4937973;29;20193;-84
2023/10/19 05:55:44;;;;;;;4.10;3.70;;;;;;;12.88;100.00;93766.34;4961802;29;20514;-85
2023/10/19 05:58:09;;;;;;;4.87;4.00;;;;;;;12.96;100.00;93762.72;4938793;29;20257;-84
2023/10/19 06:00:41;;;;;;;4.03;3.57;;;;;;;13.06;100.00;93770.91;4972624;28;20198;-81
2023/10/19 06:03:07;;;;;;;4.80;3.67;;;;;;;13.04;100.00;93765.91;4943950;29;20192;-84
2023/10/19 06:05:32;;;;;;;5.27;3.57;;;;;;;13.17;100.00;93777.31;4947300;29;20225;-83
2023/10/19 06:07:59;;;;;;;4.80;3.80;;;;;;;13.26;100.00;93771.69;4931385;29;20736;-81
2023/10/19 06:10:25;;;;;;;4.67;3.40;;;;;;;13.28;100.00;93772.28;4958120;29;20246;-82
2023/10/19 06:12:51;;;;;;;4.93;3.27;;;;;;;13.31;100.00;93771.84;4938917;29;20240;-81
2023/10/19 06:15:18;;;;;;;5.10;3.27;;;;;;;13.39;100.00;93768.22;4953093;28;20228;-83
2023/10/19 06:17:45;;;;;;;5.37;3.50;;;;;;;13.51;100.00;93769.13;4943875;29;20221;-82
2023/10/19 06:20:24;;;;;;;5.50;3.27;;;;;;;13.56;100.00;93776.34;4942900;29;20198;-83
2023/10/19 06:22:59;;;;;;;4.63;3.53;;;;;;;13.72;100.00;93772.47;4935791;29;20249;-81
2023/10/19 06:25:25;;;;;;;3.83;3.13;;;;;;;13.76;100.00;93771.03;4953273;29;20956;-82
2023/10/19 06:27:51;;;;;;;3.97;2.90;;;;;;;13.82;100.00;93773.59;4944175;29;20229;-80
2023/10/19 06:30:18;;;;;;;4.73;2.80;;;;;;;13.88;100.00;93774.56;4939190;29;20189;-81
2023/10/19 06:32:52;;;;;;;4.53;3.20;;;;;;;14.01;100.00;93774.47;4933990;29;20203;-82
2023/10/19 06:35:18;;;;;;;5.10;3.20;;;;;;;14.03;100.00;93764.63;4951235;29;20280;-82
2023/10/19 06:37:44;;;;;;;6.77;3.67;;;;;;;14.15;100.00;93767.34;4938017;29;20209;-80
2023/10/19 06:40:11;;;;;;;5.23;2.97;;;;;;;14.13;99.97;93767.56;4951422;28;20193;-79
2023/10/19 06:42:47;;;;;;;4.37;3.30;;;;;;;14.14;99.20;93752.72;4957785;28;20209;-82
2023/10/19 06:45:14;;;;;;;4.10;2.80;;;;;;;14.26;98.96;93758.03;4952215;29;20660;-83
2023/10/19 06:47:44;;;;;;;5.07;3.10;;;;;;;14.25;98.41;93762.47;4955489;29;20225;-81
2023/10/19 06:50:11;;;;;;;4.07;2.63;;;;;;;14.26;98.63;93761.44;4951464;29;20189;-81
2023/10/19 06:52:39;;;;;;;3.80;2.87;;;;;;;14.31;98.11;93755.56;4942484;29;20198;-82
2023/10/19 06:55:13;;;;;;;4.10;2.43;;;;;;;14.30;97.66;93753.97;4934737;29;20190;-81
2023/10/19 06:57:44;;;;;;;4.37;2.60;;;;;;;14.26;97.83;93755.41;4946757;29;20205;-82
2023/10/19 07:00:14;;;;;;;3.77;2.70;;;;;;;14.28;97.93;93756.78;4933769;29;20212;-83
2023/10/19 07:02:41;;;;;;;4.40;2.60;;;;;;;14.32;97.67;93750.16;4953008;29;20212;-82
2023/10/19 07:05:10;;;;;;;4.87;2.57;;;;;;;14.29;98.27;93754.97;4941619;29;20189;-81
2023/10/19 07:07:35;;;;;;;3.60;2.80;;;;;;;14.27;98.48;93752.59;4945952;29;20221;-83
2023/10/19 07:10:03;;;;;;;3.20;2.50;;;;;;;14.28;97.76;93756.78;4951156;29;20193;-82
2023/10/19 07:12:28;;;;;;;4.80;2.90;;;;;;;14.34;98.04;93761.19;4937926;29;20188;-83
2023/10/19 07:14:54;;;;;;;4.43;3.07;;;;;;;14.32;97.36;93757.19;4937223;29;20641;-84
2023/10/19 07:17:19;;;;;;;6.27;3.00;;;;;;;14.29;98.10;93754.97;4928082;29;20206;-80
2023/10/19 07:19:48;;;;;;;4.63;3.20;;;;;;;14.32;97.56;93751.97;4927123;29;20630;-83
2023/10/19 07:22:14;;;;;;;4.93;3.17;;;;;;;14.34;97.59;93761.19;4929879;29;20192;-83
2023/10/19 07:24:40;;;;;;;5.63;3.87;;;;;;;14.32;97.58;93763.22;4951299;29;20595;-83
2023/10/19 07:27:07;;;;;;;5.97;3.17;;;;;;;14.34;97.43;93770.81;4933806;29;20213;-83
2023/10/19 07:29:35;;;;;;;4.00;3.40;;;;;;;14.41;97.37;93767.16;4939816;29;20209;-80
2023/10/19 07:32:02;;;;;;;5.03;3.27;;;;;;;14.52;97.49;93759.66;4942242;29;20193;-81
2023/10/19 07:34:28;;;;;;;4.13;3.57;;;;;;;14.54;97.13;93757.63;4935368;29;20336;-81
2023/10/19 07:36:54;;;;;;;6.00;4.23;;;;;;;14.61;97.14;93755.75;4929205;29;20281;-82
2023/10/19 07:39:20;;;;;;;5.03;4.20;;;;;;;14.67;97.13;93760.13;4946694;29;20213;-80
2023/10/19 07:41:46;;;;;;;5.30;3.33;;;;;;;14.87;95.97;93760.72;4923040;29;20280;-80
2023/10/19 07:44:12;;;;;;;5.50;3.40;;;;;;;14.99;95.78;93758.16;4935308;29;20174;-81
2023/10/19 07:46:37;;;;;;;4.33;3.33;;;;;;;15.13;94.68;93758.81;4927844;29;20186;-80
2023/10/19 07:49:03;;;;;;;5.77;3.50;;;;;;;15.28;94.75;93762.66;4937147;29;20225;-80
2023/10/19 07:51:29;;;;;;;4.20;2.90;;;;;;;15.45;92.96;93752.38;4944127;29;20256;-81
2023/10/19 07:53:55;;;;;;;4.43;3.23;;;;;;;15.61;93.59;93750.19;4939463;29;20178;-80
2023/10/19 07:56:21;;;;;;;4.70;3.10;;;;;;;15.81;92.92;93753.34;4958055;28;20240;-80
2023/10/19 07:58:46;;;;;;;4.30;3.50;;;;;;;15.88;92.54;93740.97;4926535;29;20208;-80
2023/10/19 08:01:11;;;;;;;6.60;2.87;;;;;;;15.98;91.89;93741.22;4943484;29;20227;-80
2023/10/19 08:03:37;;;;;;;2.92;2.70;;;;;;;16.21;90.94;93743.09;4944861;28;20785;-80
2023/10/19 08:06:04;;;;;;;3.30;2.70;;;;;;;16.22;90.71;93746.50;4942593;29;20661;-80
2023/10/19 08:08:34;;;;;;;3.10;2.50;;;;;;;16.33;90.18;93743.88;4941882;28;20237;-80
2023/10/19 08:10:59;;;;;;;4.65;2.60;;;;;;;16.60;89.32;93752.09;4942244;29;20210;-80
2023/10/19 08:13:26;;;;;;;3.28;2.58;;;;;;;16.65;89.18;93752.22;4927994;29;20232;-80
2023/10/19 08:15:51;;;;;;;6.25;2.60;;;;;;;16.55;88.60;93752.00;4933497;29;20688;-80
2023/10/19 08:18:17;;;;;;;4.07;2.35;;;;;;;16.54;88.02;93757.47;4921641;29;20237;-80
2023/10/19 08:20:45;;;;;;;3.08;2.35;;;;;;;16.49;88.19;93755.53;4947692;28;20686;-80
2023/10/19 08:23:11;;;;;;;4.20;2.47;;;;;;;16.48;88.70;93761.78;4941482;29;20277;-81
2023/10/19 08:25:36;;;;;;;3.53;2.90;;;;;;;16.54;88.39;93762.72;4934195;29;20204;-78
2023/10/19 08:28:02;;;;;;;6.15;2.55;;;;;;;16.67;87.57;93765.09;4929311;29;20213;-79
2023/10/19 08:30:28;;;;;;;6.00;3.70;;;;;;;16.85;87.41;93756.34;4941630;29;20596;-79
2023/10/19 08:32:54;;;;;;;6.00;3.10;;;;;;;16.79;87.78;93752.03;4947239;29;20224;-79
2023/10/19 08:35:24;;;;;;;3.90;2.47;;;;;;;17.17;86.98;93752.31;4949485;29;20216;-80
2023/10/19 08:37:49;;;;;;;3.60;2.95;;;;;;;17.36;85.34;93752.16;4950689;29;20201;-80
2023/10/19 08:40:16;;;;;;;2.88;2.45;;;;;;;17.47;84.70;93744.22;4955232;29;20545;-79
2023/10/19 08:42:42;;;;;;;3.67;3.28;;;;;;;17.47;84.16;93736.34;4945634;29;20208;-80
2023/10/19 08:45:08;;;;;;;3.60;2.45;;;;;;;17.56;83.85;93742.03;4943305;29;20271;-79
2023/10/19 08:47:36;;;;;;;2.85;2.20;;;;;;;17.44;83.81;93749.97;4950412;28;20214;-80
2023/10/19 08:50:03;;;;;;;3.17;2.00;;;;;;;17.63;82.68;93741.91;4952114;29;21471;-80
2023/10/19 08:52:29;;;;;;;2.40;2.00;;;;;;;17.60;83.16;93742.38;4947374;29;20185;-78
2023/10/19 08:54:54;;;;;;;2.63;2.42;;;;;;;17.66;82.25;93742.22;4936012;29;20193;-79
2023/10/19 08:57:19;;;;;;;6.03;2.60;;;;;;;17.57;82.61;93743.63;4934794;29;20232;-80
2023/10/19 08:59:46;;;;;;;2.63;2.38;;;;;;;17.73;82.14;93732.41;4939247;29;20193;-78
2023/10/19 09:02:12;;;;;;;3.55;2.33;;;;;;;17.74;81.97;93738.44;4955768;29;20181;-81
2023/10/19 09:04:42;;;;;;;2.50;2.30;;;;;;;17.86;81.55;93730.53;4959074;29;20276;-78
2023/10/19 09:07:10;;;;;;;3.90;2.00;;;;;;;17.98;81.08;93720.75;4949935;29;20277;-81
2023/10/19 09:09:39;;;;;;;2.88;2.05;;;;;;;17.88;81.32;93723.22;4940892;29;20258;-82
2023/10/19 09:12:06;;;;;;;4.28;2.30;;;;;;;17.99;81.46;93722.34;4938639;29;20190;-82
2023/10/19 09:14:33;;;;;;;4.65;2.40;;;;;;;18.13;81.22;93718.38;4928282;29;20678;-82
2023/10/19 09:17:00;;;;;;;3.95;2.40;;;;;;;18.24;80.72;93722.75;4941301;29;20210;-82
2023/10/19 09:19:43;;;;;;;2.80;1.83;;;;;;;18.44;80.20;93717.03;4922174;29;20193;-82
2023/10/19 09:22:18;;;;;;;2.33;1.85;;;;;;;18.45;79.70;93713.34;4922942;29;20266;-81
2023/10/19 09:24:49;;;;;;;2.20;2.00;;;;;;;18.63;79.82;93714.91;4936004;29;20567;-82
2023/10/19 09:27:17;;;;;;;6.40;2.20;;;;;;;18.70;80.20;93715.59;4942751;29;20205;-83
2023/10/19 09:29:42;;;;;;;2.83;2.30;;;;;;;18.91;78.50;93709.56;4946713;28;20238;-83
2023/10/19 09:32:08;;;;;;;2.45;2.00;;;;;;;18.88;78.08;93709.25;4937206;29;20197;-83
2023/10/19 09:34:36;;;;;;;2.67;2.20;;;;;;;18.99;76.82;93710.16;4940279;29;20212;-81
2023/10/19 09:37:03;;;;;;;1.83;1.73;;;;;;;19.14;76.49;93707.75;4933368;29;20679;-85
2023/10/19 09:39:35;;;;;;;3.20;1.80;;;;;;;19.13;77.01;93712.22;4929401;29;20207;-82
2023/10/19 09:42:05;;;;;;;4.65;1.90;;;;;;;19.26;76.92;93711.06;4919446;29;20697;-82
2023/10/19 09:44:34;;;;;;;4.95;1.95;;;;;;;19.16;77.33;93710.91;4948707;28;20220;-82
2023/10/19 09:47:03;;;;;;;2.67;2.20;;;;;;;19.15;77.56;93711.97;4933774;29;20639;-84
2023/10/19 09:49:29;;;;;;;2.17;1.90;;;;;;;19.09;78.03;93712.94;4927800;29;20298;-84
2023/10/19 09:51:55;;;;;;;2.47;2.10;;;;;;;18.79;78.24;93708.88;4929036;29;20213;-84
2023/10/19 09:54:26;;;;;;;2.80;2.20;;;;;;;18.68;77.71;93712.41;4935684;29;20629;-82
2023/10/19 09:57:00;;;;;;;2.83;2.55;;;;;;;18.57;78.75;93715.91;4934209;29;20209;-81
2023/10/19 09:59:36;;;;;;;3.08;2.58;;;;;;;18.30;80.13;93711.31;4944367;29;20616;-80
2023/10/19 10:02:08;;;;;;;4.30;2.58;;;;;;;18.36;79.96;93712.97;4944574;29;20190;-83
2023/10/19 10:04:37;;;;;;;3.13;2.30;;;;;;;18.20;80.54;93703.28;4932154;29;20200;-83
2023/10/19 10:07:06;;;;;;;2.65;2.45;;;;;;;18.18;79.99;93707.94;4910313;29;20220;-83
2023/10/19 10:09:39;;;;;;;2.83;2.03;;;;;;;18.05;80.63;93703.03;4932866;29;20273;-81
2023/10/19 10:12:17;;;;;;;3.90;2.15;;;;;;;18.04;80.08;93686.47;4936174;29;20194;-81
2023/10/19 10:15:03;;;;;;;2.58;1.98;;;;;;;18.01;80.50;93692.19;4947065;29;20193;-81
2023/10/19 10:17:28;;;;;;;2.50;2.30;;;;;;;17.82;80.77;93699.47;4941037;29;20201;-82
2023/10/19 10:20:17;;;;;;;5.57;2.80;;;;;;;17.80;81.43;93698.94;4936092;29;20186;-83
2023/10/19 10:22:42;;;;;;;5.38;2.40;;;;;;;17.74;81.33;93705.13;4932344;29;20289;-81
2023/10/19 10:25:10;;;;;;;3.20;2.03;;;;;;;17.75;81.24;93700.66;4924893;29;20278;-84
2023/10/19 10:27:51;;;;;;;5.55;2.97;;;;;;;17.76;82.14;93697.81;4944933;29;20291;-83
2023/10/19 10:30:17;;;;;;;5.47;3.97;;;;;;;17.62;82.59;93709.59;4945625;29;20668;-83
2023/10/19 10:32:44;;;;;;;3.92;2.65;;;;;;;17.73;82.73;93714.03;4925722;29;20225;-82
2023/10/19 10:35:09;;;;;;;3.63;2.65;;;;;;;17.60;83.53;93713.50;4929527;29;20190;-83
2023/10/19 10:37:38;;;;;;;4.05;2.25;;;;;;;17.55;83.72;93719.44;4940973;29;20982;-83
2023/10/19 10:40:05;;;;;;;4.50;2.50;;;;;;;17.64;84.06;93722.50;4940681;29;20190;-84
2023/10/19 10:42:31;;;;;;;5.53;2.65;;;;;;;17.65;84.45;93719.63;4927700;29;20273;-84
2023/10/19 10:44:56;;;;;;;6.15;2.83;;;;;;;17.47;84.67;93728.50;4944419;29;20261;-83
2023/10/19 10:47:24;;;;;;;4.90;3.17;;;;;;;17.37;84.71;93732.75;4932430;29;20213;-84
2023/10/19 10:49:54;;;;;;;9.13;3.25;;;;;;;17.22;86.10;93734.03;4946168;29;20177;-83
2023/10/19 10:52:33;;;;;;;4.70;3.00;;;;;;;17.25;85.81;93732.78;4944726;28;20747;-82
2023/10/19 10:55:13;;;;;;;3.97;3.10;;;;;;;16.95;87.92;93725.88;4920358;29;20205;-82
2023/10/19 10:57:42;;;;;;;9.68;3.72;;;;;;;16.87;89.00;93728.06;4954656;28;20212;-84
2023/10/19 11:00:15;;;;;;;8.32;3.28;;;;;;;16.61;90.73;93711.78;4942110;29;20668;-79
2023/10/19 11:02:45;;;;;;;4.95;2.58;;;;;;;16.57;90.63;93723.75;4947960;29;20645;-80
2023/10/19 11:05:11;;;;;;;3.80;2.67;;;;;;;16.32;92.37;93713.47;4955366;29;20595;-82
2023/10/19 11:07:38;;;;;;;3.38;2.20;;;;;;;16.36;93.03;93706.78;4944935;29;20214;-82
2023/10/19 11:10:03;;;;;;;3.60;2.55;;;;;;;16.45;92.53;93695.97;4948611;29;20208;-84
2023/10/19 11:12:29;;;;;;;2.88;1.83;;;;;;;16.12;94.06;93695.47;4941193;29;20194;-82
2023/10/19 11:14:59;;;;;;;2.15;1.50;;;;;;;16.06;94.57;93696.38;4956593;28;20190;-84
2023/10/19 11:17:30;;;;;;;5.22;2.53;;;;;;;16.24;93.29;93692.06;4936769;29;20220;-85
2023/10/19 11:19:56;;;;;;;4.38;1.90;;;;;;;16.28;93.46;93685.38;4947657;29;20193;-83
2023/10/19 11:22:24;;;;;;;2.85;1.75;;;;;;;16.29;93.22;93689.56;4939231;29;20675;-84
2023/10/19 11:24:53;;;;;;;11.27;2.30;;;;;;;16.25;93.67;93676.13;4936859;29;20190;-83
2023/10/19 11:27:27;;;;;;;9.07;2.78;;;;;;;16.45;93.18;93672.38;4937952;29;20264;-83
2023/10/19 11:29:57;;;;;;;9.38;2.50;;;;;;;16.46;94.04;93668.72;4948700;29;20211;-82
2023/10/19 11:32:25;;;;;;;8.63;4.20;;;;;;;16.44;93.93;93671.59;4934539;29;20190;-83
2023/10/19 11:34:54;;;;;;;6.85;4.72;;;;;;;16.47;94.81;93662.47;4952962;29;20193;-84
2023/10/19 11:37:19;;;;;;;8.68;6.60;;;;;;;16.44;94.55;93653.25;4945491;28;20220;-83
2023/10/19 11:39:45;;;;;;;12.52;8.05;;;;;;;16.33;96.14;93639.09;4942589;29;20252;-82
2023/10/19 11:42:12;;;;;;;7.82;5.43;;;;;;;16.39;94.99;93638.19;4939025;29;20197;-83
2023/10/19 11:44:37;;;;;;;6.88;4.35;;;;;;;16.38;94.91;93627.97;4952570;29;20204;-82
2023/10/19 11:47:03;;;;;;;5.15;3.20;;;;;;;16.36;95.59;93617.72;4962719;28;20256;-83
2023/10/19 11:49:29;;;;;;;5.43;2.97;;;;;;;16.32;95.63;93613.94;4958445;29;20240;-83
2023/10/19 11:51:54;;;;;;;7.68;3.60;;;;;;;16.28;96.15;93609.41;4954842;29;20218;-82
2023/10/19 11:54:19;;;;;;;5.45;3.55;;;;;;;16.28;96.70;93602.34;4934585;29;20194;-83